Overview Statistics Trail Chart Weather Telemetry Raw packets
 

This is the latest recevied weather packets stored in our database for station/object VK4CWL-13. If no packets are shown the sender has not sent any weather packets the latest 10 day(s).

<< 52 53 54 55 56 57 58 >>
Time Temp. Humidity Pressure Rain* Wind** Luminosity Snow
1788315619 25.56° C 40% 1021.6 hPa 0 mm - - -
1788315315 25.56° C 42% 1021.8 hPa 0 mm - - -
1788315015 25° C 42% 1021.8 hPa 0 mm - - -
1788314712 25° C 42% 1022.1 hPa 0 mm - - -
1788314409 25° C 42% 1022.2 hPa 0 mm - - -
1788314108 25° C 42% 1022.3 hPa 0 mm - - -
1788313803 25° C 44% 1022.4 hPa 0 mm - - -
1788313502 25° C 44% 1022.7 hPa 0 mm - - -
1788313300 25° C 43% 1022.7 hPa 0 mm - - -
1788313137 25° C 45% 1022.8 hPa 0 mm - - -
1788312836 25° C 46% 1023 hPa 0 mm - - -
1788312233 25° C 48% 1023.4 hPa 0 mm - - -
1788311931 24.44° C 50% 1023.5 hPa 0 mm - - -
1788311626 24.44° C 50% 1023.5 hPa 0 mm - - -
1788311325 23.89° C 50% 1023.8 hPa 0 mm - - -
1788311022 23.89° C 51% 1023.8 hPa 0 mm - - -
1788310419 23.33° C 50% 1023.9 hPa 0 mm - - -
1788310114 23.33° C 53% 1024.1 hPa 0 mm - - -
1788309815 22.78° C 51% 1024 hPa 0 mm - - -
1788309510 22.78° C 55% 1024.3 hPa 0 mm - - -
1788309207 22.78° C 54% 1024.3 hPa 0 mm - - -
1788308908 22.22° C 58% 1024.5 hPa 0 mm - - -
1788308603 22.22° C 59% 1024.6 hPa 0 mm - - -
1788308300 21.67° C 61% 1024.7 hPa 0 mm - - -
1788307998 21.67° C 60% 1024.7 hPa 0 mm - - -

* Rain since midnight (hover to see other rain measurements)
** Current wind speed in m/s (hover to see current wind gust speed)